sensor_id;sensor_type;location;lat;lon;timestamp;pressure;altitude;pressure_sealevel;temperature;humidity
56632;BME280;42503;39.928;-75.152;2023-05-01T00:08:06;98529.44;;;20.81;47.42
56632;BME280;42503;39.928;-75.152;2023-05-01T00:18:07;98507.22;;;20.81;47.19
56632;BME280;42503;39.928;-75.152;2023-05-01T00:28:08;98470.72;;;20.83;47.33
56632;BME280;42503;39.928;-75.152;2023-05-01T00:38:10;98382.22;;;20.52;47.03
56632;BME280;42503;39.928;-75.152;2023-05-01T00:48:12;98408.50;;;20.75;47.12
56632;BME280;42503;39.928;-75.152;2023-05-01T00:58:16;98403.88;;;20.79;47.01
56632;BME280;42503;39.928;-75.152;2023-05-01T01:08:39;98404.69;;;20.80;47.25
56632;BME280;42503;39.928;-75.152;2023-05-01T01:18:51;98406.44;;;20.85;46.76
56632;BME280;42503;39.928;-75.152;2023-05-01T01:39:42;98353.41;;;20.56;47.12
56632;BME280;42503;39.928;-75.152;2023-05-01T01:49:50;98396.97;;;20.86;46.86
56632;BME280;42503;39.928;-75.152;2023-05-01T01:59:54;98393.03;;;20.87;46.66
56632;BME280;42503;39.928;-75.152;2023-05-01T02:09:56;98418.78;;;20.96;47.02
56632;BME280;42503;39.928;-75.152;2023-05-01T02:19:59;98394.72;;;20.79;45.85
56632;BME280;42503;39.928;-75.152;2023-05-01T02:30:05;98439.66;;;21.02;46.32
56632;BME280;42503;39.928;-75.152;2023-05-01T02:40:08;98438.31;;;21.08;46.55
56632;BME280;42503;39.928;-75.152;2023-05-01T02:50:12;98448.72;;;21.11;46.79
56632;BME280;42503;39.928;-75.152;2023-05-01T03:00:15;98447.78;;;21.07;47.53
56632;BME280;42503;39.928;-75.152;2023-05-01T03:10:17;98446.66;;;21.08;47.23
56632;BME280;42503;39.928;-75.152;2023-05-01T03:20:18;98443.59;;;21.01;47.31
56632;BME280;42503;39.928;-75.152;2023-05-01T03:30:19;98452.16;;;20.96;47.29
56632;BME280;42503;39.928;-75.152;2023-05-01T03:40:21;98485.56;;;21.08;47.05
56632;BME280;42503;39.928;-75.152;2023-05-01T03:50:22;98508.50;;;21.05;47.15
56632;BME280;42503;39.928;-75.152;2023-05-01T04:00:23;98504.75;;;21.01;47.67
56632;BME280;42503;39.928;-75.152;2023-05-01T04:10:34;98560.38;;;21.01;47.55
56632;BME280;42503;39.928;-75.152;2023-05-01T04:20:36;98577.59;;;20.94;47.39
56632;BME280;42503;39.928;-75.152;2023-05-01T04:30:37;98618.28;;;20.99;48.00
56632;BME280;42503;39.928;-75.152;2023-05-01T04:40:39;98666.03;;;21.01;47.93
56632;BME280;42503;39.928;-75.152;2023-05-01T04:50:40;98718.38;;;20.99;47.78
56632;BME280;42503;39.928;-75.152;2023-05-01T05:00:42;98662.88;;;20.81;47.78
56632;BME280;42503;39.928;-75.152;2023-05-01T05:10:43;98741.66;;;20.86;48.08
56632;BME280;42503;39.928;-75.152;2023-05-01T05:20:45;98761.91;;;20.95;48.13
56632;BME280;42503;39.928;-75.152;2023-05-01T05:30:46;98815.19;;;20.97;48.19
56632;BME280;42503;39.928;-75.152;2023-05-01T05:40:47;98788.25;;;20.89;47.94
56632;BME280;42503;39.928;-75.152;2023-05-01T05:50:54;98364.72;;;17.73;47.96
56632;BME280;42503;39.928;-75.152;2023-05-01T06:00:59;98828.63;;;20.95;47.89
56632;BME280;42503;39.928;-75.152;2023-05-01T06:11:00;98830.91;;;20.93;47.98
56632;BME280;42503;39.928;-75.152;2023-05-01T06:21:02;98758.63;;;20.93;47.88
56632;BME280;42503;39.928;-75.152;2023-05-01T06:31:03;98716.69;;;20.77;47.96
56632;BME280;42503;39.928;-75.152;2023-05-01T06:41:05;98672.78;;;20.91;47.64
56632;BME280;42503;39.928;-75.152;2023-05-01T06:51:07;98718.16;;;20.74;47.67
56632;BME280;42503;39.928;-75.152;2023-05-01T07:01:08;98741.91;;;20.46;47.57
56632;BME280;42503;39.928;-75.152;2023-05-01T07:11:12;98883.44;;;20.86;47.84
56632;BME280;42503;39.928;-75.152;2023-05-01T07:21:16;98915.66;;;20.87;47.51
56632;BME280;42503;39.928;-75.152;2023-05-01T07:31:18;98947.69;;;20.75;47.65
56632;BME280;42503;39.928;-75.152;2023-05-01T07:41:19;99018.00;;;20.85;47.53
56632;BME280;42503;39.928;-75.152;2023-05-01T07:51:21;99009.66;;;20.85;47.33
56632;BME280;42503;39.928;-75.152;2023-05-01T08:01:23;99031.41;;;20.83;47.31
56632;BME280;42503;39.928;-75.152;2023-05-01T08:11:25;99015.91;;;20.81;47.14
56632;BME280;42503;39.928;-75.152;2023-05-01T08:21:27;98935.88;;;20.26;47.39
56632;BME280;42503;39.928;-75.152;2023-05-01T08:31:28;99024.06;;;20.69;47.07
56632;BME280;42503;39.928;-75.152;2023-05-01T08:41:31;99106.78;;;20.72;47.21
56632;BME280;42503;39.928;-75.152;2023-05-01T08:51:33;99097.78;;;20.67;47.15
56632;BME280;42503;39.928;-75.152;2023-05-01T09:01:36;99139.00;;;20.73;47.12
56632;BME280;42503;39.928;-75.152;2023-05-01T09:11:39;99170.38;;;20.74;46.94
56632;BME280;42503;39.928;-75.152;2023-05-01T09:21:40;99165.66;;;20.74;47.05
56632;BME280;42503;39.928;-75.152;2023-05-01T09:31:42;99165.97;;;20.73;46.94
56632;BME280;42503;39.928;-75.152;2023-05-01T09:41:52;99167.28;;;20.67;46.86
56632;BME280;42503;39.928;-75.152;2023-05-01T09:52:12;99160.03;;;20.48;46.92
56632;BME280;42503;39.928;-75.152;2023-05-01T10:02:27;99193.25;;;20.62;46.89
56632;BME280;42503;39.928;-75.152;2023-05-01T10:12:30;99208.13;;;20.66;46.75
56632;BME280;42503;39.928;-75.152;2023-05-01T10:22:34;99171.22;;;20.35;46.77
56632;BME280;42503;39.928;-75.152;2023-05-01T10:32:37;99230.69;;;20.65;46.46
56632;BME280;42503;39.928;-75.152;2023-05-01T10:53:18;99258.28;;;20.61;46.97
56632;BME280;42503;39.928;-75.152;2023-05-01T11:13:59;99298.47;;;20.55;46.78
56632;BME280;42503;39.928;-75.152;2023-05-01T11:24:07;99302.00;;;20.47;46.33
56632;BME280;42503;39.928;-75.152;2023-05-01T11:34:08;99342.81;;;20.60;45.99
56632;BME280;42503;39.928;-75.152;2023-05-01T11:44:22;99361.13;;;20.61;45.93
56632;BME280;42503;39.928;-75.152;2023-05-01T11:54:24;99367.69;;;20.65;45.28
56632;BME280;42503;39.928;-75.152;2023-05-01T12:04:29;99364.03;;;20.56;45.50
56632;BME280;42503;39.928;-75.152;2023-05-01T12:14:30;99383.13;;;20.71;45.12
56632;BME280;42503;39.928;-75.152;2023-05-01T12:24:34;99372.25;;;20.61;45.40
56632;BME280;42503;39.928;-75.152;2023-05-01T12:34:36;99395.88;;;20.72;45.05
56632;BME280;42503;39.928;-75.152;2023-05-01T12:44:41;99398.66;;;20.72;44.97
56632;BME280;42503;39.928;-75.152;2023-05-01T12:54:43;99385.19;;;20.66;44.96
56632;BME280;42503;39.928;-75.152;2023-05-01T13:04:45;99393.09;;;20.72;45.04
56632;BME280;42503;39.928;-75.152;2023-05-01T13:14:49;99356.34;;;20.53;44.92
56632;BME280;42503;39.928;-75.152;2023-05-01T13:24:50;99386.38;;;20.73;44.71
56632;BME280;42503;39.928;-75.152;2023-05-01T13:34:53;99381.59;;;20.65;44.55
56632;BME280;42503;39.928;-75.152;2023-05-01T13:44:56;99389.66;;;20.75;44.68
56632;BME280;42503;39.928;-75.152;2023-05-01T13:54:57;99339.13;;;20.28;44.98
56632;BME280;42503;39.928;-75.152;2023-05-01T14:04:59;99398.19;;;20.79;44.98
56632;BME280;42503;39.928;-75.152;2023-05-01T14:15:00;99372.63;;;20.68;44.57
56632;BME280;42503;39.928;-75.152;2023-05-01T14:25:04;99365.28;;;20.72;44.65
56632;BME280;42503;39.928;-75.152;2023-05-01T14:35:11;99378.53;;;20.75;44.43
56632;BME280;42503;39.928;-75.152;2023-05-01T14:45:15;99404.16;;;20.86;44.48
56632;BME280;42503;39.928;-75.152;2023-05-01T14:55:17;99368.22;;;20.67;44.45
56632;BME280;42503;39.928;-75.152;2023-05-01T15:05:19;99409.25;;;20.93;44.24
56632;BME280;42503;39.928;-75.152;2023-05-01T15:15:21;99437.25;;;20.96;44.14
56632;BME280;42503;39.928;-75.152;2023-05-01T15:25:25;99422.03;;;20.94;44.08
56632;BME280;42503;39.928;-75.152;2023-05-01T15:35:27;99414.16;;;20.96;44.14
56632;BME280;42503;39.928;-75.152;2023-05-01T15:45:28;99382.84;;;20.81;44.18
56632;BME280;42503;39.928;-75.152;2023-05-01T15:55:29;99387.25;;;20.83;44.39
56632;BME280;42503;39.928;-75.152;2023-05-01T16:05:31;99432.50;;;20.97;44.40
56632;BME280;42503;39.928;-75.152;2023-05-01T16:15:36;99396.75;;;20.81;44.24
56632;BME280;42503;39.928;-75.152;2023-05-01T16:25:41;99438.88;;;20.97;43.88
56632;BME280;42503;39.928;-75.152;2023-05-01T16:35:48;99425.09;;;20.92;44.13
56632;BME280;42503;39.928;-75.152;2023-05-01T16:45:49;99332.31;;;20.35;43.87
56632;BME280;42503;39.928;-75.152;2023-05-01T16:55:53;99416.56;;;20.89;43.70
56632;BME280;42503;39.928;-75.152;2023-05-01T17:05:55;99412.34;;;20.91;43.87
56632;BME280;42503;39.928;-75.152;2023-05-01T17:15:58;99402.03;;;20.92;43.66
56632;BME280;42503;39.928;-75.152;2023-05-01T17:26:02;99359.75;;;20.72;43.68
56632;BME280;42503;39.928;-75.152;2023-05-01T17:36:05;99325.88;;;20.48;43.62
56632;BME280;42503;39.928;-75.152;2023-05-01T17:46:06;99386.50;;;20.91;43.60
56632;BME280;42503;39.928;-75.152;2023-05-01T17:56:08;99356.63;;;20.74;43.74
56632;BME280;42503;39.928;-75.152;2023-05-01T18:06:09;99333.97;;;20.58;43.73
56632;BME280;42503;39.928;-75.152;2023-05-01T18:16:10;99385.97;;;20.89;43.58
56632;BME280;42503;39.928;-75.152;2023-05-01T18:26:12;99377.28;;;20.81;43.65
56632;BME280;42503;39.928;-75.152;2023-05-01T18:36:13;99372.22;;;20.84;43.78
56632;BME280;42503;39.928;-75.152;2023-05-01T18:46:15;99366.59;;;20.75;43.82
56632;BME280;42503;39.928;-75.152;2023-05-01T18:56:16;99342.41;;;20.75;43.60
56632;BME280;42503;39.928;-75.152;2023-05-01T19:06:18;99366.66;;;20.84;43.45
56632;BME280;42503;39.928;-75.152;2023-05-01T19:16:19;99341.97;;;20.82;43.61
56632;BME280;42503;39.928;-75.152;2023-05-01T19:26:23;99338.03;;;20.83;43.19
56632;BME280;42503;39.928;-75.152;2023-05-01T19:36:25;99342.97;;;20.86;43.19
56632;BME280;42503;39.928;-75.152;2023-05-01T19:46:26;99368.03;;;20.95;42.87
56632;BME280;42503;39.928;-75.152;2023-05-01T19:56:28;99349.84;;;20.89;42.99
56632;BME280;42503;39.928;-75.152;2023-05-01T20:06:29;99352.28;;;20.81;43.07
56632;BME280;42503;39.928;-75.152;2023-05-01T20:16:31;99363.13;;;20.92;42.74
56632;BME280;42503;39.928;-75.152;2023-05-01T20:26:48;99366.41;;;20.94;42.85
56632;BME280;42503;39.928;-75.152;2023-05-01T20:36:50;99365.41;;;20.90;42.63
56632;BME280;42503;39.928;-75.152;2023-05-01T20:47:07;99338.06;;;20.61;42.51
56632;BME280;42503;39.928;-75.152;2023-05-01T20:57:09;99426.94;;;20.97;42.17
56632;BME280;42503;39.928;-75.152;2023-05-01T21:07:11;99429.09;;;21.00;42.00
56632;BME280;42503;39.928;-75.152;2023-05-01T21:17:14;99421.44;;;20.83;41.85
56632;BME280;42503;39.928;-75.152;2023-05-01T21:27:15;99460.81;;;20.99;41.94
56632;BME280;42503;39.928;-75.152;2023-05-01T21:37:17;99476.38;;;21.00;42.04
56632;BME280;42503;39.928;-75.152;2023-05-01T21:47:21;99468.91;;;20.87;41.57
56632;BME280;42503;39.928;-75.152;2023-05-01T21:57:22;99357.19;;;20.17;41.51
56632;BME280;42503;39.928;-75.152;2023-05-01T22:07:24;99490.91;;;20.97;41.58
56632;BME280;42503;39.928;-75.152;2023-05-01T22:17:25;99498.88;;;20.90;41.56
56632;BME280;42503;39.928;-75.152;2023-05-01T22:27:27;99523.25;;;20.93;41.41
56632;BME280;42503;39.928;-75.152;2023-05-01T22:37:28;99537.16;;;20.93;40.76
56632;BME280;42503;39.928;-75.152;2023-05-01T22:47:29;99533.69;;;20.87;40.74
56632;BME280;42503;39.928;-75.152;2023-05-01T22:57:31;99539.03;;;20.84;41.08
56632;BME280;42503;39.928;-75.152;2023-05-01T23:07:32;99534.13;;;20.80;41.32
56632;BME280;42503;39.928;-75.152;2023-05-01T23:17:34;99534.75;;;20.77;41.64
56632;BME280;42503;39.928;-75.152;2023-05-01T23:27:39;99558.38;;;20.89;41.56
56632;BME280;42503;39.928;-75.152;2023-05-01T23:37:41;99544.09;;;20.81;42.20
56632;BME280;42503;39.928;-75.152;2023-05-01T23:47:43;99549.53;;;20.87;42.58
56632;BME280;42503;39.928;-75.152;2023-05-01T23:57:45;99529.44;;;20.67;42.65
